sensor_id;sensor_type;location;lat;lon;timestamp;pressure;altitude;pressure_sealevel;temperature;humidity
7335;BME280;3708;42.632;23.378;2023-04-06T00:01:26;93988.22;;;1.51;55.65
7335;BME280;3708;42.632;23.378;2023-04-06T00:03:54;93996.34;;;1.34;55.90
7335;BME280;3708;42.632;23.378;2023-04-06T00:06:21;93989.00;;;1.57;56.16
7335;BME280;3708;42.632;23.378;2023-04-06T00:08:48;93983.81;;;1.18;56.63
7335;BME280;3708;42.632;23.378;2023-04-06T00:11:15;93985.69;;;1.02;57.44
7335;BME280;3708;42.632;23.378;2023-04-06T00:13:42;93987.38;;;1.22;57.00
7335;BME280;3708;42.632;23.378;2023-04-06T00:16:09;93979.84;;;1.35;56.90
7335;BME280;3708;42.632;23.378;2023-04-06T00:18:36;93987.03;;;1.38;56.20
7335;BME280;3708;42.632;23.378;2023-04-06T00:21:05;93992.59;;;1.55;55.25
7335;BME280;3708;42.632;23.378;2023-04-06T00:23:32;93979.50;;;1.47;55.99
7335;BME280;3708;42.632;23.378;2023-04-06T00:25:58;93972.59;;;1.76;55.16
7335;BME280;3708;42.632;23.378;2023-04-06T00:28:26;93971.31;;;1.35;56.23
7335;BME280;3708;42.632;23.378;2023-04-06T00:30:55;93968.03;;;1.24;56.72
7335;BME280;3708;42.632;23.378;2023-04-06T00:33:22;93966.13;;;1.40;56.58
7335;BME280;3708;42.632;23.378;2023-04-06T00:35:50;93972.19;;;1.59;55.89
7335;BME280;3708;42.632;23.378;2023-04-06T00:38:19;93964.38;;;1.30;56.47
7335;BME280;3708;42.632;23.378;2023-04-06T00:40:46;93962.03;;;1.34;56.43
7335;BME280;3708;42.632;23.378;2023-04-06T00:43:13;93963.66;;;1.20;57.28
7335;BME280;3708;42.632;23.378;2023-04-06T00:45:41;93955.50;;;1.80;55.40
7335;BME280;3708;42.632;23.378;2023-04-06T00:48:08;93949.28;;;1.47;56.67
7335;BME280;3708;42.632;23.378;2023-04-06T00:50:35;93960.69;;;0.98;57.58
7335;BME280;3708;42.632;23.378;2023-04-06T00:53:02;93957.78;;;1.14;57.25
7335;BME280;3708;42.632;23.378;2023-04-06T00:55:30;93961.31;;;0.80;58.16
7335;BME280;3708;42.632;23.378;2023-04-06T00:57:59;93966.19;;;1.30;57.20
7335;BME280;3708;42.632;23.378;2023-04-06T01:00:26;93955.78;;;1.01;58.27
7335;BME280;3708;42.632;23.378;2023-04-06T01:02:53;93964.59;;;0.90;58.09
7335;BME280;3708;42.632;23.378;2023-04-06T01:05:20;93960.19;;;0.91;57.87
7335;BME280;3708;42.632;23.378;2023-04-06T01:07:47;93956.53;;;1.02;57.46
7335;BME280;3708;42.632;23.378;2023-04-06T01:10:22;93965.19;;;1.26;57.41
7335;BME280;3708;42.632;23.378;2023-04-06T01:12:50;93954.00;;;0.97;57.66
7335;BME280;3708;42.632;23.378;2023-04-06T01:15:18;93947.13;;;1.26;57.52
7335;BME280;3708;42.632;23.378;2023-04-06T01:17:46;93948.59;;;1.37;56.95
7335;BME280;3708;42.632;23.378;2023-04-06T01:20:13;93950.59;;;1.45;56.81
7335;BME280;3708;42.632;23.378;2023-04-06T01:22:41;93944.03;;;1.24;57.45
7335;BME280;3708;42.632;23.378;2023-04-06T01:25:10;93940.94;;;1.27;58.35
7335;BME280;3708;42.632;23.378;2023-04-06T01:27:37;93939.88;;;1.28;57.66
7335;BME280;3708;42.632;23.378;2023-04-06T01:30:06;93927.63;;;1.10;57.83
7335;BME280;3708;42.632;23.378;2023-04-06T01:32:36;93933.94;;;1.27;57.62
7335;BME280;3708;42.632;23.378;2023-04-06T01:35:04;93943.94;;;1.39;57.54
7335;BME280;3708;42.632;23.378;2023-04-06T01:37:32;93941.63;;;0.99;58.42
7335;BME280;3708;42.632;23.378;2023-04-06T01:40:00;93934.09;;;1.07;58.43
7335;BME280;3708;42.632;23.378;2023-04-06T01:42:27;93934.75;;;0.74;59.61
7335;BME280;3708;42.632;23.378;2023-04-06T01:44:55;93931.34;;;0.89;58.92
7335;BME280;3708;42.632;23.378;2023-04-06T01:47:22;93935.75;;;0.83;58.84
7335;BME280;3708;42.632;23.378;2023-04-06T01:49:49;93914.28;;;0.98;58.83
7335;BME280;3708;42.632;23.378;2023-04-06T01:52:16;93913.19;;;1.04;58.20
7335;BME280;3708;42.632;23.378;2023-04-06T01:54:43;93941.72;;;1.22;58.10
7335;BME280;3708;42.632;23.378;2023-04-06T01:57:12;93932.91;;;0.85;58.59
7335;BME280;3708;42.632;23.378;2023-04-06T01:59:39;93931.59;;;0.92;58.19
7335;BME280;3708;42.632;23.378;2023-04-06T02:02:06;93916.84;;;1.36;57.75
7335;BME280;3708;42.632;23.378;2023-04-06T02:04:33;93914.44;;;1.50;57.81
7335;BME280;3708;42.632;23.378;2023-04-06T02:07:00;93910.78;;;1.22;58.30
7335;BME280;3708;42.632;23.378;2023-04-06T02:09:27;93903.75;;;1.28;57.75
7335;BME280;3708;42.632;23.378;2023-04-06T02:11:54;93931.09;;;0.85;58.90
7335;BME280;3708;42.632;23.378;2023-04-06T02:14:25;93925.34;;;0.98;58.75
7335;BME280;3708;42.632;23.378;2023-04-06T02:16:52;93932.97;;;0.69;59.60
7335;BME280;3708;42.632;23.378;2023-04-06T02:19:19;93910.63;;;1.04;58.69
7335;BME280;3708;42.632;23.378;2023-04-06T02:21:46;93907.91;;;1.29;58.38
7335;BME280;3708;42.632;23.378;2023-04-06T02:24:13;93907.59;;;0.97;58.82
7335;BME280;3708;42.632;23.378;2023-04-06T02:26:40;93910.91;;;1.36;58.54
7335;BME280;3708;42.632;23.378;2023-04-06T02:29:06;93911.38;;;1.48;58.29
7335;BME280;3708;42.632;23.378;2023-04-06T02:31:35;93913.38;;;1.17;58.67
7335;BME280;3708;42.632;23.378;2023-04-06T02:34:02;93909.69;;;1.28;58.47
7335;BME280;3708;42.632;23.378;2023-04-06T02:36:29;93912.66;;;1.45;57.93
7335;BME280;3708;42.632;23.378;2023-04-06T02:38:56;93916.94;;;1.60;57.43
7335;BME280;3708;42.632;23.378;2023-04-06T02:41:23;93910.94;;;1.70;56.69
7335;BME280;3708;42.632;23.378;2023-04-06T02:43:50;93906.22;;;1.43;57.90
7335;BME280;3708;42.632;23.378;2023-04-06T02:46:17;93906.53;;;1.70;56.70
7335;BME280;3708;42.632;23.378;2023-04-06T02:48:45;93906.69;;;1.50;57.64
7335;BME280;3708;42.632;23.378;2023-04-06T02:51:12;93909.84;;;1.76;56.81
7335;BME280;3708;42.632;23.378;2023-04-06T02:53:39;93918.94;;;0.96;58.81
7335;BME280;3708;42.632;23.378;2023-04-06T02:56:07;93930.94;;;1.15;57.99
7335;BME280;3708;42.632;23.378;2023-04-06T02:58:34;93933.28;;;1.12;58.37
7335;BME280;3708;42.632;23.378;2023-04-06T03:01:14;93911.06;;;1.16;58.46
7335;BME280;3708;42.632;23.378;2023-04-06T03:03:49;93907.34;;;0.93;58.75
7335;BME280;3708;42.632;23.378;2023-04-06T03:06:16;93918.44;;;1.32;58.73
7335;BME280;3708;42.632;23.378;2023-04-06T03:08:43;93902.09;;;1.08;58.62
7335;BME280;3708;42.632;23.378;2023-04-06T03:11:10;93901.97;;;1.23;58.21
7335;BME280;3708;42.632;23.378;2023-04-06T03:13:37;93907.47;;;1.50;57.64
7335;BME280;3708;42.632;23.378;2023-04-06T03:16:05;93909.13;;;1.70;57.15
7335;BME280;3708;42.632;23.378;2023-04-06T03:18:32;93898.06;;;1.31;58.47
7335;BME280;3708;42.632;23.378;2023-04-06T03:21:00;93894.50;;;1.27;58.56
7335;BME280;3708;42.632;23.378;2023-04-06T03:23:27;93889.34;;;1.27;58.78
7335;BME280;3708;42.632;23.378;2023-04-06T03:25:54;93898.06;;;1.31;58.77
7335;BME280;3708;42.632;23.378;2023-04-06T03:28:21;93906.41;;;1.85;57.15
7335;BME280;3708;42.632;23.378;2023-04-06T03:30:49;93897.69;;;1.47;57.96
7335;BME280;3708;42.632;23.378;2023-04-06T03:33:16;93913.75;;;0.96;58.88
7335;BME280;3708;42.632;23.378;2023-04-06T03:35:42;93895.88;;;1.14;58.90
7335;BME280;3708;42.632;23.378;2023-04-06T03:38:11;93911.16;;;1.73;57.40
7335;BME280;3708;42.632;23.378;2023-04-06T03:40:38;93904.00;;;1.31;58.18
7335;BME280;3708;42.632;23.378;2023-04-06T03:43:05;93913.44;;;1.07;58.47
7335;BME280;3708;42.632;23.378;2023-04-06T03:45:32;93905.81;;;1.31;58.02
7335;BME280;3708;42.632;23.378;2023-04-06T03:47:59;93908.00;;;1.09;58.65
7335;BME280;3708;42.632;23.378;2023-04-06T03:50:26;93903.94;;;1.03;59.40
7335;BME280;3708;42.632;23.378;2023-04-06T03:52:53;93911.94;;;1.40;57.91
7335;BME280;3708;42.632;23.378;2023-04-06T03:55:21;93907.19;;;1.52;57.52
7335;BME280;3708;42.632;23.378;2023-04-06T03:57:48;93908.94;;;1.62;56.71
7335;BME280;3708;42.632;23.378;2023-04-06T04:00:15;93891.31;;;1.40;57.73
7335;BME280;3708;42.632;23.378;2023-04-06T04:02:42;93904.38;;;1.15;58.57
7335;BME280;3708;42.632;23.378;2023-04-06T04:05:09;93920.72;;;1.00;58.18
7335;BME280;3708;42.632;23.378;2023-04-06T04:07:36;93895.38;;;1.46;57.57
7335;BME280;3708;42.632;23.378;2023-04-06T04:10:04;93904.75;;;1.32;57.28
7335;BME280;3708;42.632;23.378;2023-04-06T04:12:32;93905.53;;;1.66;56.94
7335;BME280;3708;42.632;23.378;2023-04-06T04:14:59;93906.31;;;1.33;58.27
7335;BME280;3708;42.632;23.378;2023-04-06T04:17:26;93906.22;;;1.43;57.72
7335;BME280;3708;42.632;23.378;2023-04-06T04:19:53;93898.44;;;1.53;57.76
7335;BME280;3708;42.632;23.378;2023-04-06T04:22:20;93909.00;;;1.85;56.97
7335;BME280;3708;42.632;23.378;2023-04-06T04:24:47;93907.16;;;1.86;56.64
7335;BME280;3708;42.632;23.378;2023-04-06T04:27:14;93912.44;;;1.71;56.65
7335;BME280;3708;42.632;23.378;2023-04-06T04:29:42;93915.56;;;1.96;56.25
7335;BME280;3708;42.632;23.378;2023-04-06T04:32:10;93924.31;;;2.53;54.89
7335;BME280;3708;42.632;23.378;2023-04-06T04:34:37;93931.47;;;1.85;56.31
7335;BME280;3708;42.632;23.378;2023-04-06T04:37:05;93904.25;;;1.92;56.72
7335;BME280;3708;42.632;23.378;2023-04-06T04:39:32;93927.09;;;1.80;56.90
7335;BME280;3708;42.632;23.378;2023-04-06T04:41:59;93919.38;;;1.75;56.47
7335;BME280;3708;42.632;23.378;2023-04-06T04:44:26;93938.75;;;2.06;55.42
7335;BME280;3708;42.632;23.378;2023-04-06T04:46:54;93938.06;;;1.67;56.80
7335;BME280;3708;42.632;23.378;2023-04-06T04:49:22;93909.41;;;1.92;56.44
7335;BME280;3708;42.632;23.378;2023-04-06T04:51:49;93912.78;;;2.21;55.84
7335;BME280;3708;42.632;23.378;2023-04-06T04:54:18;93916.69;;;2.14;55.98
7335;BME280;3708;42.632;23.378;2023-04-06T04:56:45;93913.66;;;1.83;56.80
7335;BME280;3708;42.632;23.378;2023-04-06T04:59:12;93919.13;;;2.53;54.75
7335;BME280;3708;42.632;23.378;2023-04-06T05:01:39;93925.50;;;1.84;55.68
7335;BME280;3708;42.632;23.378;2023-04-06T05:04:07;93930.56;;;2.47;55.06
7335;BME280;3708;42.632;23.378;2023-04-06T05:06:34;93926.56;;;2.36;55.28
7335;BME280;3708;42.632;23.378;2023-04-06T05:09:01;93917.63;;;1.99;55.92
7335;BME280;3708;42.632;23.378;2023-04-06T05:11:28;93922.22;;;2.31;55.23
7335;BME280;3708;42.632;23.378;2023-04-06T05:13:56;93914.78;;;2.48;55.33
7335;BME280;3708;42.632;23.378;2023-04-06T05:16:23;93918.38;;;2.28;55.20
7335;BME280;3708;42.632;23.378;2023-04-06T05:18:49;93923.66;;;2.42;54.86
7335;BME280;3708;42.632;23.378;2023-04-06T05:21:18;93916.22;;;2.36;55.11
7335;BME280;3708;42.632;23.378;2023-04-06T05:23:45;93919.78;;;2.40;55.50
7335;BME280;3708;42.632;23.378;2023-04-06T05:26:12;93923.81;;;2.51;54.84
7335;BME280;3708;42.632;23.378;2023-04-06T05:28:39;93917.78;;;2.79;54.55
7335;BME280;3708;42.632;23.378;2023-04-06T05:31:07;93925.94;;;3.09;53.18
7335;BME280;3708;42.632;23.378;2023-04-06T05:33:34;93925.97;;;2.44;54.42
7335;BME280;3708;42.632;23.378;2023-04-06T05:36:01;93923.28;;;2.30;55.69
7335;BME280;3708;42.632;23.378;2023-04-06T05:38:30;93929.13;;;2.59;55.17
7335;BME280;3708;42.632;23.378;2023-04-06T05:40:58;93915.69;;;2.81;53.89
7335;BME280;3708;42.632;23.378;2023-04-06T05:43:25;93916.22;;;2.36;55.68
7335;BME280;3708;42.632;23.378;2023-04-06T05:45:52;93912.91;;;2.06;56.32
7335;BME280;3708;42.632;23.378;2023-04-06T05:48:19;93911.53;;;2.38;55.47
7335;BME280;3708;42.632;23.378;2023-04-06T05:50:48;93908.59;;;2.25;55.37
7335;BME280;3708;42.632;23.378;2023-04-06T05:53:15;93919.56;;;2.12;55.71
7335;BME280;3708;42.632;23.378;2023-04-06T05:55:44;93910.13;;;2.26;56.67
7335;BME280;3708;42.632;23.378;2023-04-06T05:58:11;93905.78;;;1.98;56.74
7335;BME280;3708;42.632;23.378;2023-04-06T06:00:37;93900.47;;;2.13;56.81
7335;BME280;3708;42.632;23.378;2023-04-06T06:03:04;93906.59;;;2.65;55.25
7335;BME280;3708;42.632;23.378;2023-04-06T06:05:33;93895.84;;;2.34;56.20
7335;BME280;3708;42.632;23.378;2023-04-06T06:08:00;93903.97;;;2.22;56.51
7335;BME280;3708;42.632;23.378;2023-04-06T06:10:28;93905.66;;;2.32;56.10
7335;BME280;3708;42.632;23.378;2023-04-06T06:12:56;93905.38;;;2.33;56.82
7335;BME280;3708;42.632;23.378;2023-04-06T06:15:23;93898.78;;;2.22;57.45
7335;BME280;3708;42.632;23.378;2023-04-06T06:17:50;93902.94;;;2.66;56.31
7335;BME280;3708;42.632;23.378;2023-04-06T06:20:17;93902.09;;;2.04;57.44
7335;BME280;3708;42.632;23.378;2023-04-06T06:22:44;93909.56;;;2.53;56.43
7335;BME280;3708;42.632;23.378;2023-04-06T06:25:11;93900.19;;;2.81;56.01
7335;BME280;3708;42.632;23.378;2023-04-06T06:27:38;93901.06;;;3.46;54.55
7335;BME280;3708;42.632;23.378;2023-04-06T06:30:07;93901.28;;;2.33;56.93
7335;BME280;3708;42.632;23.378;2023-04-06T06:32:34;93899.94;;;2.59;55.96
7335;BME280;3708;42.632;23.378;2023-04-06T06:35:01;93900.25;;;2.76;56.54
7335;BME280;3708;42.632;23.378;2023-04-06T06:37:28;93888.06;;;2.76;56.35
7335;BME280;3708;42.632;23.378;2023-04-06T06:39:55;93901.94;;;3.23;55.05
7335;BME280;3708;42.632;23.378;2023-04-06T06:42:21;93895.16;;;3.08;55.03
7335;BME280;3708;42.632;23.378;2023-04-06T06:44:48;93898.56;;;3.41;54.59
7335;BME280;3708;42.632;23.378;2023-04-06T06:47:17;93917.47;;;3.73;53.57
7335;BME280;3708;42.632;23.378;2023-04-06T06:49:43;93904.44;;;3.46;53.90
7335;BME280;3708;42.632;23.378;2023-04-06T06:52:10;93897.84;;;3.54;53.97
7335;BME280;3708;42.632;23.378;2023-04-06T06:54:37;93909.09;;;3.12;55.36
7335;BME280;3708;42.632;23.378;2023-04-06T06:57:04;93897.31;;;3.38;55.11
7335;BME280;3708;42.632;23.378;2023-04-06T06:59:31;93896.97;;;3.45;54.70
7335;BME280;3708;42.632;23.378;2023-04-06T07:01:58;93906.00;;;3.29;54.23
7335;BME280;3708;42.632;23.378;2023-04-06T07:04:26;93889.84;;;2.99;55.83
7335;BME280;3708;42.632;23.378;2023-04-06T07:06:53;93904.38;;;2.77;56.45
7335;BME280;3708;42.632;23.378;2023-04-06T07:09:20;93894.53;;;2.97;55.84
7335;BME280;3708;42.632;23.378;2023-04-06T07:11:47;93890.84;;;3.54;54.73
7335;BME280;3708;42.632;23.378;2023-04-06T07:14:15;93880.59;;;3.49;55.21
7335;BME280;3708;42.632;23.378;2023-04-06T07:16:42;93900.41;;;3.86;54.14
7335;BME280;3708;42.632;23.378;2023-04-06T07:19:10;93889.66;;;3.15;55.49
7335;BME280;3708;42.632;23.378;2023-04-06T07:21:38;93895.34;;;3.49;54.48
7335;BME280;3708;42.632;23.378;2023-04-06T07:24:05;93891.59;;;3.87;54.06
7335;BME280;3708;42.632;23.378;2023-04-06T07:26:32;93901.66;;;3.05;55.43
7335;BME280;3708;42.632;23.378;2023-04-06T07:28:59;93883.97;;;2.94;55.89
7335;BME280;3708;42.632;23.378;2023-04-06T07:31:26;93892.41;;;3.37;54.85
7335;BME280;3708;42.632;23.378;2023-04-06T07:33:53;93902.25;;;3.85;53.29
7335;BME280;3708;42.632;23.378;2023-04-06T07:36:20;93889.44;;;3.62;53.81
7335;BME280;3708;42.632;23.378;2023-04-06T07:38:48;93881.69;;;3.62;53.13
7335;BME280;3708;42.632;23.378;2023-04-06T07:41:15;93884.81;;;3.59;54.13
7335;BME280;3708;42.632;23.378;2023-04-06T07:43:42;93885.59;;;4.05;53.83
7335;BME280;3708;42.632;23.378;2023-04-06T07:46:09;93888.47;;;4.04;52.44
7335;BME280;3708;42.632;23.378;2023-04-06T07:48:36;93890.69;;;4.24;52.13
7335;BME280;3708;42.632;23.378;2023-04-06T07:51:04;93881.88;;;4.25;52.73
7335;BME280;3708;42.632;23.378;2023-04-06T07:53:32;93887.22;;;4.01;52.69
7335;BME280;3708;42.632;23.378;2023-04-06T07:56:00;93886.06;;;3.94;53.75
7335;BME280;3708;42.632;23.378;2023-04-06T07:58:27;93888.56;;;3.99;54.54
7335;BME280;3708;42.632;23.378;2023-04-06T08:00:53;93891.06;;;4.04;53.60
7335;BME280;3708;42.632;23.378;2023-04-06T08:03:21;93897.78;;;4.05;53.37
7335;BME280;3708;42.632;23.378;2023-04-06T08:05:51;93885.00;;;3.62;54.51
7335;BME280;3708;42.632;23.378;2023-04-06T08:08:18;93888.88;;;4.11;54.37
7335;BME280;3708;42.632;23.378;2023-04-06T08:10:46;93883.78;;;4.74;52.80
7335;BME280;3708;42.632;23.378;2023-04-06T08:13:17;93886.84;;;4.89;51.82
7335;BME280;3708;42.632;23.378;2023-04-06T08:15:44;93870.91;;;4.69;50.94
7335;BME280;3708;42.632;23.378;2023-04-06T08:18:11;93880.22;;;4.70;51.49
7335;BME280;3708;42.632;23.378;2023-04-06T08:20:39;93889.50;;;3.89;53.60
7335;BME280;3708;42.632;23.378;2023-04-06T08:23:07;93895.34;;;3.81;53.91
7335;BME280;3708;42.632;23.378;2023-04-06T08:25:36;93884.28;;;4.48;53.34
7335;BME280;3708;42.632;23.378;2023-04-06T08:28:03;93892.06;;;4.48;52.36
7335;BME280;3708;42.632;23.378;2023-04-06T08:30:31;93880.72;;;4.44;52.66
7335;BME280;3708;42.632;23.378;2023-04-06T08:32:58;93919.28;;;4.05;53.62
7335;BME280;3708;42.632;23.378;2023-04-06T08:35:26;93887.59;;;3.95;52.24
7335;BME280;3708;42.632;23.378;2023-04-06T08:37:53;93895.53;;;3.84;52.65
7335;BME280;3708;42.632;23.378;2023-04-06T08:40:20;93888.59;;;4.26;51.62
7335;BME280;3708;42.632;23.378;2023-04-06T08:42:50;93910.31;;;4.57;50.54
7335;BME280;3708;42.632;23.378;2023-04-06T08:45:18;93932.19;;;4.24;51.14
7335;BME280;3708;42.632;23.378;2023-04-06T08:47:48;93907.81;;;4.52;50.58
7335;BME280;3708;42.632;23.378;2023-04-06T08:50:16;93879.97;;;4.30;50.32
7335;BME280;3708;42.632;23.378;2023-04-06T08:52:44;93888.03;;;4.29;50.04
7335;BME280;3708;42.632;23.378;2023-04-06T08:55:12;93896.69;;;3.78;50.52
7335;BME280;3708;42.632;23.378;2023-04-06T08:57:40;93892.53;;;3.77;51.04
7335;BME280;3708;42.632;23.378;2023-04-06T09:00:10;93929.69;;;3.86;50.85
7335;BME280;3708;42.632;23.378;2023-04-06T09:02:38;93896.78;;;3.87;51.26
7335;BME280;3708;42.632;23.378;2023-04-06T09:05:08;93903.19;;;4.22;50.23
7335;BME280;3708;42.632;23.378;2023-04-06T09:07:36;93881.88;;;4.66;49.51
7335;BME280;3708;42.632;23.378;2023-04-06T09:10:03;93907.91;;;4.47;49.63
7335;BME280;3708;42.632;23.378;2023-04-06T09:12:31;93889.84;;;4.69;50.29
7335;BME280;3708;42.632;23.378;2023-04-06T09:14:59;93910.47;;;3.74;51.43
7335;BME280;3708;42.632;23.378;2023-04-06T09:17:28;93886.09;;;4.07;51.17
7335;BME280;3708;42.632;23.378;2023-04-06T09:19:56;93910.88;;;4.27;50.66
7335;BME280;3708;42.632;23.378;2023-04-06T09:22:24;93885.63;;;4.46;49.89
7335;BME280;3708;42.632;23.378;2023-04-06T09:24:53;93879.72;;;4.81;49.35
7335;BME280;3708;42.632;23.378;2023-04-06T09:27:30;93875.81;;;4.56;49.87
7335;BME280;3708;42.632;23.378;2023-04-06T09:30:03;93893.97;;;4.70;49.63
7335;BME280;3708;42.632;23.378;2023-04-06T09:32:30;93876.38;;;4.67;49.36
7335;BME280;3708;42.632;23.378;2023-04-06T09:35:05;93904.06;;;4.58;49.64
7335;BME280;3708;42.632;23.378;2023-04-06T09:37:34;93872.25;;;5.15;48.82
7335;BME280;3708;42.632;23.378;2023-04-06T09:40:05;93872.06;;;4.76;49.00
7335;BME280;3708;42.632;23.378;2023-04-06T09:42:33;93892.03;;;4.76;48.94
7335;BME280;3708;42.632;23.378;2023-04-06T09:45:00;93866.03;;;5.03;48.12
7335;BME280;3708;42.632;23.378;2023-04-06T09:47:27;93877.69;;;5.27;47.98
7335;BME280;3708;42.632;23.378;2023-04-06T09:49:57;93883.94;;;5.26;48.81
7335;BME280;3708;42.632;23.378;2023-04-06T09:52:26;93883.03;;;5.09;48.47
7335;BME280;3708;42.632;23.378;2023-04-06T09:54:58;93907.75;;;5.06;47.15
7335;BME280;3708;42.632;23.378;2023-04-06T09:57:29;93915.78;;;5.32;46.80
7335;BME280;3708;42.632;23.378;2023-04-06T10:00:04;93895.75;;;4.83;48.12
7335;BME280;3708;42.632;23.378;2023-04-06T10:02:45;93874.97;;;4.61;48.02
7335;BME280;3708;42.632;23.378;2023-04-06T10:05:20;93885.28;;;4.88;47.99
7335;BME280;3708;42.632;23.378;2023-04-06T10:07:50;93868.50;;;5.21;46.74
7335;BME280;3708;42.632;23.378;2023-04-06T10:10:20;93870.00;;;5.22;47.01
7335;BME280;3708;42.632;23.378;2023-04-06T10:12:48;93870.97;;;5.49;46.38
7335;BME280;3708;42.632;23.378;2023-04-06T10:15:15;93867.31;;;5.50;46.79
7335;BME280;3708;42.632;23.378;2023-04-06T10:17:43;93858.69;;;5.18;47.10
7335;BME280;3708;42.632;23.378;2023-04-06T10:20:13;93867.59;;;5.48;46.08
7335;BME280;3708;42.632;23.378;2023-04-06T10:22:44;93851.28;;;5.12;46.16
7335;BME280;3708;42.632;23.378;2023-04-06T10:25:27;93872.50;;;5.27;46.53
7335;BME280;3708;42.632;23.378;2023-04-06T10:28:01;93877.09;;;5.53;46.06
7335;BME280;3708;42.632;23.378;2023-04-06T10:30:28;93863.16;;;5.26;45.73
7335;BME280;3708;42.632;23.378;2023-04-06T10:32:55;93850.41;;;5.16;46.50
7335;BME280;3708;42.632;23.378;2023-04-06T10:35:22;93862.66;;;5.60;45.61
7335;BME280;3708;42.632;23.378;2023-04-06T10:37:51;93880.84;;;5.60;45.48
7335;BME280;3708;42.632;23.378;2023-04-06T10:40:23;93874.16;;;5.90;45.31
7335;BME280;3708;42.632;23.378;2023-04-06T10:42:53;93870.97;;;6.32;44.88
7335;BME280;3708;42.632;23.378;2023-04-06T10:45:22;93860.59;;;6.32;44.09
7335;BME280;3708;42.632;23.378;2023-04-06T10:47:52;93886.41;;;6.20;45.15
7335;BME280;3708;42.632;23.378;2023-04-06T10:50:19;93874.63;;;6.62;44.20
7335;BME280;3708;42.632;23.378;2023-04-06T10:52:46;93875.09;;;6.64;43.55
7335;BME280;3708;42.632;23.378;2023-04-06T10:55:15;93851.41;;;7.25;43.12
7335;BME280;3708;42.632;23.378;2023-04-06T10:57:42;93874.25;;;7.03;41.58
7335;BME280;3708;42.632;23.378;2023-04-06T11:00:12;93872.47;;;6.16;44.31
7335;BME280;3708;42.632;23.378;2023-04-06T11:02:39;93864.25;;;6.31;44.74
7335;BME280;3708;42.632;23.378;2023-04-06T11:05:07;93861.56;;;6.05;44.87
7335;BME280;3708;42.632;23.378;2023-04-06T11:07:34;93854.41;;;5.89;45.41
7335;BME280;3708;42.632;23.378;2023-04-06T11:10:01;93876.81;;;5.98;44.78
7335;BME280;3708;42.632;23.378;2023-04-06T11:12:29;93863.75;;;5.46;45.40
7335;BME280;3708;42.632;23.378;2023-04-06T11:14:57;93863.34;;;5.74;45.73
7335;BME280;3708;42.632;23.378;2023-04-06T11:17:31;93873.06;;;6.61;44.33
7335;BME280;3708;42.632;23.378;2023-04-06T11:19:58;93852.59;;;6.20;44.87
7335;BME280;3708;42.632;23.378;2023-04-06T11:22:26;93862.66;;;6.13;44.54
7335;BME280;3708;42.632;23.378;2023-04-06T11:24:53;93860.44;;;5.98;44.65
7335;BME280;3708;42.632;23.378;2023-04-06T11:27:31;93840.97;;;6.91;43.10
7335;BME280;3708;42.632;23.378;2023-04-06T11:30:01;93847.44;;;6.37;43.66
7335;BME280;3708;42.632;23.378;2023-04-06T11:32:39;93835.44;;;6.67;43.69
7335;BME280;3708;42.632;23.378;2023-04-06T11:35:10;93840.56;;;6.41;44.05
7335;BME280;3708;42.632;23.378;2023-04-06T11:37:39;93855.66;;;6.22;44.26
7335;BME280;3708;42.632;23.378;2023-04-06T11:40:08;93844.16;;;6.71;43.04
7335;BME280;3708;42.632;23.378;2023-04-06T11:42:35;93853.69;;;6.92;43.37
7335;BME280;3708;42.632;23.378;2023-04-06T11:45:03;93841.09;;;6.21;44.38
7335;BME280;3708;42.632;23.378;2023-04-06T11:47:33;93833.69;;;6.45;44.40
7335;BME280;3708;42.632;23.378;2023-04-06T11:50:06;93845.41;;;6.73;44.15
7335;BME280;3708;42.632;23.378;2023-04-06T11:52:33;93848.25;;;6.07;44.22
7335;BME280;3708;42.632;23.378;2023-04-06T11:55:10;93839.59;;;6.20;44.75
7335;BME280;3708;42.632;23.378;2023-04-06T11:57:38;93832.84;;;6.19;44.31
7335;BME280;3708;42.632;23.378;2023-04-06T12:00:06;93856.34;;;6.05;44.40
7335;BME280;3708;42.632;23.378;2023-04-06T12:02:35;93851.59;;;5.77;44.82
7335;BME280;3708;42.632;23.378;2023-04-06T12:05:02;93835.31;;;5.63;45.69
7335;BME280;3708;42.632;23.378;2023-04-06T12:07:30;93832.09;;;6.19;44.39
7335;BME280;3708;42.632;23.378;2023-04-06T12:09:58;93839.94;;;6.27;43.56
7335;BME280;3708;42.632;23.378;2023-04-06T12:12:28;93830.53;;;6.65;43.63
7335;BME280;3708;42.632;23.378;2023-04-06T12:14:56;93829.00;;;6.73;43.44
7335;BME280;3708;42.632;23.378;2023-04-06T12:17:23;93838.44;;;6.04;44.55
7335;BME280;3708;42.632;23.378;2023-04-06T12:19:51;93847.84;;;6.22;43.97
7335;BME280;3708;42.632;23.378;2023-04-06T12:22:18;93829.84;;;6.43;43.82
7335;BME280;3708;42.632;23.378;2023-04-06T12:24:45;93837.31;;;5.66;45.46
7335;BME280;3708;42.632;23.378;2023-04-06T12:27:12;93830.09;;;5.85;45.33
7335;BME280;3708;42.632;23.378;2023-04-06T12:29:40;93833.75;;;6.79;43.99
7335;BME280;3708;42.632;23.378;2023-04-06T12:32:07;93842.88;;;6.51;44.14
7335;BME280;3708;42.632;23.378;2023-04-06T12:34:34;93838.16;;;6.05;44.99
7335;BME280;3708;42.632;23.378;2023-04-06T12:37:02;93828.34;;;5.80;45.78
7335;BME280;3708;42.632;23.378;2023-04-06T12:39:29;93828.28;;;7.07;44.42
7335;BME280;3708;42.632;23.378;2023-04-06T12:41:57;93829.97;;;5.68;45.52
7335;BME280;3708;42.632;23.378;2023-04-06T12:44:24;93828.91;;;6.30;44.90
7335;BME280;3708;42.632;23.378;2023-04-06T12:46:51;93817.19;;;6.58;44.60
7335;BME280;3708;42.632;23.378;2023-04-06T12:49:19;93823.38;;;6.97;42.74
7335;BME280;3708;42.632;23.378;2023-04-06T12:51:47;93825.09;;;6.36;43.71
7335;BME280;3708;42.632;23.378;2023-04-06T12:54:16;93807.19;;;6.35;44.14
7335;BME280;3708;42.632;23.378;2023-04-06T12:56:43;93812.66;;;6.89;43.02
7335;BME280;3708;42.632;23.378;2023-04-06T13:01:46;93815.28;;;5.85;44.34
7335;BME280;3708;42.632;23.378;2023-04-06T13:04:28;93809.03;;;5.86;45.19
7335;BME280;3708;42.632;23.378;2023-04-06T13:07:05;93802.31;;;6.42;43.48
7335;BME280;3708;42.632;23.378;2023-04-06T13:09:38;93804.19;;;5.71;44.88
7335;BME280;3708;42.632;23.378;2023-04-06T13:12:08;93809.13;;;5.81;44.65
7335;BME280;3708;42.632;23.378;2023-04-06T13:14:43;93811.66;;;6.51;44.07
7335;BME280;3708;42.632;23.378;2023-04-06T13:17:43;93800.25;;;7.21;42.57
7335;BME280;3708;42.632;23.378;2023-04-06T13:20:46;93804.84;;;7.07;43.31
7335;BME280;3708;42.632;23.378;2023-04-06T13:23:46;93800.25;;;6.86;43.01
7335;BME280;3708;42.632;23.378;2023-04-06T13:26:14;93796.38;;;6.58;43.60
7335;BME280;3708;42.632;23.378;2023-04-06T13:28:42;93795.34;;;6.93;42.98
7335;BME280;3708;42.632;23.378;2023-04-06T13:31:10;93795.13;;;6.47;44.56